createdAt,value
2023-04-02T00:00:21.878Z,99490.20
2023-04-02T00:05:51.857Z,99495.00
2023-04-02T00:11:00.495Z,99501.40
2023-04-02T00:16:11.859Z,99499.00
2023-04-02T00:21:24.791Z,99499.60
2023-04-02T00:26:37.905Z,99509.20
2023-04-02T00:31:47.745Z,99524.40
2023-04-02T00:36:54.877Z,99525.20
2023-04-02T00:42:05.236Z,99528.80
2023-04-02T00:47:20.818Z,99531.60
2023-04-02T00:52:30.776Z,99535.80
2023-04-02T00:57:36.863Z,99530.40
2023-04-02T01:02:42.895Z,99539.40
2023-04-02T01:08:04.813Z,99546.20
2023-04-02T01:13:25.179Z,99555.40
2023-04-02T01:18:46.534Z,99569.60
2023-04-02T01:24:04.344Z,99574.40
2023-04-02T01:29:14.417Z,99575.40
2023-04-02T01:34:25.073Z,99576.80
2023-04-02T01:39:48.999Z,99580.40
2023-04-02T01:45:01.970Z,99586.00
2023-04-02T01:50:31.062Z,99586.80
2023-04-02T01:55:44.442Z,99595.60
2023-04-02T02:00:56.436Z,99607.00
2023-04-02T02:06:05.259Z,99611.20
2023-04-02T02:11:17.294Z,99609.60
2023-04-02T02:16:24.410Z,99613.80
2023-04-02T02:21:42.022Z,99622.00
2023-04-02T02:26:51.537Z,99625.40
2023-04-02T02:31:59.861Z,99631.40
2023-04-02T02:37:15.025Z,99640.60
2023-04-02T02:42:28.609Z,99641.60
2023-04-02T02:47:37.461Z,99644.20
2023-04-02T02:52:52.312Z,99648.40
2023-04-02T02:58:03.087Z,99658.40
2023-04-02T03:03:14.377Z,99656.20
2023-04-02T03:08:30.350Z,99665.80
2023-04-02T03:13:38.975Z,99666.20
2023-04-02T03:18:52.285Z,99682.20
2023-04-02T03:24:04.154Z,99687.80
2023-04-02T03:29:19.772Z,99691.80
2023-04-02T03:34:33.055Z,99698.60
2023-04-02T03:39:45.070Z,99707.40
2023-04-02T03:44:57.484Z,99712.00
2023-04-02T03:50:10.927Z,99723.80
2023-04-02T03:55:22.592Z,99734.00
2023-04-02T04:00:37.233Z,99742.20
2023-04-02T04:05:51.655Z,99744.40
2023-04-02T04:11:07.610Z,99750.60
2023-04-02T04:16:19.408Z,99753.20
2023-04-02T04:21:36.851Z,99759.40
2023-04-02T04:26:49.145Z,99767.20
2023-04-02T04:31:55.394Z,99763.40
2023-04-02T04:37:07.413Z,99769.60
2023-04-02T04:42:21.353Z,99785.00
2023-04-02T04:47:32.755Z,99793.40
2023-04-02T04:52:41.472Z,99800.40
2023-04-02T04:57:50.830Z,99806.60
2023-04-02T05:03:06.632Z,99816.20
2023-04-02T05:08:19.656Z,99828.80
2023-04-02T05:13:34.619Z,99834.20
2023-04-02T05:18:47.636Z,99843.40
2023-04-02T05:24:05.512Z,99850.40
2023-04-02T05:29:18.631Z,99853.00
2023-04-02T05:34:28.045Z,99858.80
2023-04-02T05:39:33.898Z,99862.40
2023-04-02T05:44:55.526Z,99866.80
2023-04-02T05:50:21.589Z,99878.00
2023-04-02T05:55:42.624Z,99883.20
2023-04-02T06:01:20.564Z,99887.00
2023-04-02T06:06:43.540Z,99888.20
2023-04-02T06:11:56.145Z,99904.00
2023-04-02T06:17:02.183Z,99903.40
2023-04-02T06:22:20.994Z,99912.40
2023-04-02T06:27:29.432Z,99917.40
2023-04-02T06:32:35.785Z,99929.60
2023-04-02T06:37:45.840Z,99938.40
2023-04-02T06:42:59.092Z,99945.40
2023-04-02T06:48:06.854Z,99955.40
2023-04-02T06:53:23.913Z,99959.40
2023-04-02T06:58:29.479Z,99963.00
2023-04-02T07:03:35.701Z,99967.40
2023-04-02T07:08:41.270Z,99974.20
2023-04-02T07:13:47.870Z,99984.60
2023-04-02T07:18:55.090Z,99992.20
2023-04-02T07:24:00.812Z,100009.20
2023-04-02T07:29:07.959Z,100010.20
2023-04-02T07:34:13.770Z,100018.60
2023-04-02T07:39:19.458Z,100030.80
2023-04-02T07:44:25.385Z,100032.60
2023-04-02T07:49:30.967Z,100042.00
2023-04-02T07:54:37.804Z,100041.60
2023-04-02T07:59:43.432Z,100049.80
2023-04-02T08:04:50.808Z,100053.80
2023-04-02T08:09:56.394Z,100058.20
2023-04-02T08:15:02.521Z,100075.00
2023-04-02T08:20:15.628Z,100081.40
2023-04-02T08:25:21.220Z,100090.60
2023-04-02T08:30:26.859Z,100098.40
2023-04-02T08:35:33.394Z,100102.40
2023-04-02T08:40:43.036Z,100120.20
2023-04-02T08:46:04.671Z,100120.20
2023-04-02T08:51:22.839Z,100122.80
2023-04-02T08:56:37.532Z,100132.60
2023-04-02T09:01:56.807Z,100131.00
2023-04-02T09:07:04.002Z,100137.00
2023-04-02T09:12:21.160Z,100145.20
2023-04-02T09:17:29.139Z,100153.20
2023-04-02T09:22:36.151Z,100167.20
2023-04-02T09:27:41.816Z,100173.20
2023-04-02T09:32:53.221Z,100185.00
2023-04-02T09:38:22.163Z,100196.20
2023-04-02T09:43:30.460Z,100207.80
2023-04-02T09:48:39.621Z,100212.40
2023-04-02T09:53:48.672Z,100220.60
2023-04-02T09:59:07.744Z,100224.40
2023-04-02T10:04:38.138Z,100237.60
2023-04-02T10:09:44.410Z,100246.20
2023-04-02T10:14:51.823Z,100249.80
2023-04-02T10:20:01.839Z,100256.80
2023-04-02T10:25:16.645Z,100261.60
2023-04-02T10:30:26.815Z,100265.80
2023-04-02T10:35:47.897Z,100268.60
2023-04-02T10:41:02.921Z,100281.80
2023-04-02T10:46:18.114Z,100286.60
2023-04-02T10:51:38.875Z,100297.40
2023-04-02T10:56:51.143Z,100300.00
2023-04-02T11:02:01.913Z,100311.60
2023-04-02T11:07:17.542Z,100318.20
2023-04-02T11:12:30.110Z,100329.40
2023-04-02T11:17:36.463Z,100341.60
2023-04-02T11:22:42.430Z,100353.60
2023-04-02T11:27:48.357Z,100354.60
2023-04-02T11:32:55.910Z,100356.00
2023-04-02T11:38:23.938Z,100363.40
2023-04-02T11:43:59.595Z,100375.40
2023-04-02T11:49:39.876Z,100390.00
2023-04-02T11:54:46.948Z,100397.60
2023-04-02T12:00:21.070Z,100393.60
2023-04-02T12:05:36.312Z,100397.00
2023-04-02T12:10:57.675Z,100407.40
2023-04-02T12:16:04.219Z,100411.80
2023-04-02T12:21:17.264Z,100420.20
2023-04-02T12:26:37.839Z,100438.60
2023-04-02T12:31:47.824Z,100458.00
2023-04-02T12:37:02.310Z,100445.80
2023-04-02T12:42:27.334Z,100438.40
2023-04-02T12:47:33.846Z,100462.60
2023-04-02T12:52:48.263Z,100470.60
2023-04-02T12:58:00.318Z,100470.00
2023-04-02T13:03:20.769Z,100481.20
2023-04-02T13:08:30.302Z,100483.60
2023-04-02T13:13:39.435Z,100493.60
2023-04-02T13:18:47.394Z,100497.20
2023-04-02T13:23:53.487Z,100506.00
2023-04-02T13:29:10.884Z,100512.60
2023-04-02T13:34:17.402Z,100520.80
2023-04-02T13:39:23.845Z,100525.80
2023-04-02T13:44:32.060Z,100535.00
2023-04-02T13:49:38.178Z,100533.60
2023-04-02T13:54:50.373Z,100534.80
2023-04-02T13:59:56.091Z,100542.80
2023-04-02T14:05:21.300Z,100537.20
2023-04-02T14:10:46.673Z,100538.60
2023-04-02T14:16:12.536Z,100554.80
2023-04-02T14:21:30.827Z,100557.60
2023-04-02T14:26:46.358Z,100550.80
2023-04-02T14:32:00.207Z,100564.80
2023-04-02T14:37:21.130Z,100568.00
2023-04-02T14:42:34.199Z,100583.00
2023-04-02T14:47:46.581Z,100581.80
2023-04-02T14:52:58.627Z,100590.60
2023-04-02T14:58:10.369Z,100583.80
2023-04-02T15:03:23.166Z,100593.20
2023-04-02T15:08:31.898Z,100608.60
2023-04-02T15:13:43.686Z,100604.00
2023-04-02T15:18:55.681Z,100607.80
2023-04-02T15:24:14.108Z,100624.20
2023-04-02T15:29:34.526Z,100626.20
2023-04-02T15:34:48.663Z,100633.60
2023-04-02T15:40:09.157Z,100637.80
2023-04-02T15:45:43.231Z,100636.80
2023-04-02T15:51:03.343Z,100655.80
2023-04-02T15:56:25.199Z,100664.80
2023-04-02T16:01:46.644Z,100665.80
2023-04-02T16:07:19.908Z,100669.00
2023-04-02T16:12:29.382Z,100669.40
2023-04-02T16:17:42.025Z,100670.80
2023-04-02T16:23:01.110Z,100679.00
2023-04-02T16:28:19.858Z,100685.00
2023-04-02T16:33:44.581Z,100694.20
2023-04-02T16:39:01.361Z,100707.00
2023-04-02T16:44:29.290Z,100714.40
2023-04-02T16:49:42.438Z,100722.40
2023-04-02T16:55:05.734Z,100728.60
2023-04-02T17:00:24.793Z,100739.20
2023-04-02T17:05:35.634Z,100744.00
2023-04-02T17:10:51.779Z,100741.00
2023-04-02T17:16:09.467Z,100757.80
2023-04-02T17:21:21.633Z,100762.20
2023-04-02T17:26:32.967Z,100775.40
2023-04-02T17:31:41.563Z,100784.60
2023-04-02T17:36:57.789Z,100791.20
2023-04-02T17:42:18.113Z,100798.80
2023-04-02T17:47:30.665Z,100813.20
2023-04-02T17:52:44.369Z,100820.00
2023-04-02T17:58:07.476Z,100828.40
2023-04-02T18:03:40.443Z,100834.00
2023-04-02T18:09:05.640Z,100840.00
2023-04-02T18:14:34.447Z,100852.00
2023-04-02T18:19:51.113Z,100862.60
2023-04-02T18:25:24.826Z,100865.40
2023-04-02T18:30:42.848Z,100875.40
2023-04-02T18:36:01.670Z,100882.60
2023-04-02T18:41:27.373Z,100881.40
2023-04-02T18:46:44.452Z,100888.00
2023-04-02T18:51:57.702Z,100896.80
2023-04-02T18:57:12.613Z,100904.00
2023-04-02T19:02:43.054Z,100907.20
2023-04-02T19:07:54.272Z,100908.40
2023-04-02T19:13:00.249Z,100912.20
2023-04-02T19:18:18.863Z,100922.80
2023-04-02T19:23:45.369Z,100918.60
2023-04-02T19:29:03.441Z,100928.40
2023-04-02T19:34:21.118Z,100935.20
2023-04-02T19:39:53.834Z,100943.00
2023-04-02T19:45:00.293Z,100950.60
2023-04-02T19:50:08.076Z,100954.20
2023-04-02T19:55:14.457Z,100965.00
2023-04-02T20:00:22.216Z,100960.40
2023-04-02T20:05:28.194Z,100972.60
2023-04-02T20:10:34.590Z,100974.00
2023-04-02T20:15:41.776Z,100972.80
2023-04-02T20:20:49.182Z,100983.60
2023-04-02T20:25:58.332Z,100994.60
2023-04-02T20:31:13.812Z,100993.40
2023-04-02T20:36:20.139Z,100994.80
2023-04-02T20:41:27.058Z,101005.40
2023-04-02T20:46:33.190Z,101005.00
2023-04-02T20:51:39.149Z,101012.40
2023-04-02T20:56:45.087Z,101015.20
2023-04-02T21:01:51.237Z,101022.80
2023-04-02T21:06:57.241Z,101026.60
2023-04-02T21:12:03.186Z,101029.40
2023-04-02T21:17:09.413Z,101039.60
2023-04-02T21:22:15.056Z,101044.80
2023-04-02T21:27:25.170Z,101041.20
2023-04-02T21:32:31.386Z,101050.80
2023-04-02T21:37:37.452Z,101058.40
2023-04-02T21:42:43.228Z,101059.80
2023-04-02T21:47:48.966Z,101060.40
2023-04-02T21:52:54.846Z,101059.40
2023-04-02T21:58:00.608Z,101065.40
2023-04-02T22:03:06.341Z,101063.80
2023-04-02T22:08:12.679Z,101067.80
2023-04-02T22:13:18.760Z,101062.80
2023-04-02T22:18:24.769Z,101067.80
2023-04-02T22:23:32.271Z,101074.60
2023-04-02T22:28:38.219Z,101077.40
2023-04-02T22:33:45.082Z,101078.00
2023-04-02T22:38:51.579Z,101078.40
2023-04-02T22:43:58.511Z,101074.80
2023-04-02T22:49:04.252Z,101079.20
2023-04-02T22:54:10.188Z,101078.80
2023-04-02T22:59:16.400Z,101084.40
2023-04-02T23:04:22.713Z,101083.60
2023-04-02T23:09:28.910Z,101095.80
2023-04-02T23:14:34.973Z,101099.20
2023-04-02T23:19:40.748Z,101104.40
2023-04-02T23:24:46.816Z,101103.40
2023-04-02T23:29:52.962Z,101096.40
2023-04-02T23:34:59.164Z,101095.00
2023-04-02T23:40:06.360Z,101100.40
2023-04-02T23:45:13.361Z,101105.00
2023-04-02T23:50:19.592Z,101097.40
2023-04-02T23:55:25.527Z,101109.00
